createdAt,value
2023-05-19T00:00:54.621Z,95389.00
2023-05-19T00:01:54.701Z,95387.00
2023-05-19T00:02:54.663Z,95387.00
2023-05-19T00:03:54.676Z,95385.00
2023-05-19T00:04:54.580Z,95389.00
2023-05-19T00:05:54.653Z,95389.00
2023-05-19T00:06:54.583Z,95381.00
2023-05-19T00:07:54.574Z,95381.00
2023-05-19T00:08:54.607Z,95381.00
2023-05-19T00:09:54.599Z,95381.00
2023-05-19T00:10:54.583Z,95383.00
2023-05-19T00:11:54.591Z,95379.00
2023-05-19T00:12:54.575Z,95379.00
2023-05-19T00:13:54.583Z,95377.00
2023-05-19T00:14:54.597Z,95381.00
2023-05-19T00:15:54.593Z,95381.00
2023-05-19T00:16:54.576Z,95383.00
2023-05-19T00:17:54.618Z,95383.00
2023-05-19T00:18:54.607Z,95385.00
2023-05-19T00:19:54.578Z,95381.00
2023-05-19T00:20:54.553Z,95383.00
2023-05-19T00:21:54.579Z,95385.00
2023-05-19T00:22:54.547Z,95383.00
2023-05-19T00:23:54.587Z,95387.00
2023-05-19T00:24:54.557Z,95387.00
2023-05-19T00:25:54.549Z,95389.00
2023-05-19T00:26:54.589Z,95387.00
2023-05-19T00:27:54.564Z,95389.00
2023-05-19T00:28:54.558Z,95385.00
2023-05-19T00:29:54.547Z,95387.00
2023-05-19T00:30:54.556Z,95387.00
2023-05-19T00:31:54.580Z,95387.00
2023-05-19T00:32:54.607Z,95383.00
2023-05-19T00:33:54.555Z,95383.00
2023-05-19T00:34:54.589Z,95383.00
2023-05-19T00:35:54.548Z,95387.00
2023-05-19T00:36:54.540Z,95387.00
2023-05-19T00:37:54.553Z,95385.00
2023-05-19T00:38:54.544Z,95385.00
2023-05-19T00:39:54.550Z,95385.00
2023-05-19T00:40:54.576Z,95385.00
2023-05-19T00:41:54.558Z,95385.00
2023-05-19T00:42:54.531Z,95383.00
2023-05-19T00:43:54.555Z,95379.00
2023-05-19T00:44:54.543Z,95379.00
2023-05-19T00:45:54.555Z,95381.00
2023-05-19T00:46:54.635Z,95379.00
2023-05-19T00:47:54.587Z,95377.00
2023-05-19T00:48:54.541Z,95379.00
2023-05-19T00:49:54.559Z,95377.00
2023-05-19T00:50:54.546Z,95381.00
2023-05-19T00:51:54.541Z,95375.00
2023-05-19T00:52:54.548Z,95377.00
2023-05-19T00:53:54.539Z,95377.00
2023-05-19T00:54:54.563Z,95375.00
2023-05-19T00:55:54.526Z,95373.00
2023-05-19T00:56:54.544Z,95375.00
2023-05-19T00:57:54.521Z,95371.00
2023-05-19T00:58:54.547Z,95371.00
2023-05-19T00:59:54.547Z,95371.00
2023-05-19T01:00:54.556Z,95371.00
2023-05-19T01:01:54.537Z,95371.00
2023-05-19T01:02:54.664Z,95373.00
2023-05-19T01:03:54.628Z,95370.00
2023-05-19T01:04:54.525Z,95371.00
2023-05-19T01:05:54.536Z,95375.00
2023-05-19T01:06:54.520Z,95375.00
2023-05-19T01:07:54.537Z,95373.00
2023-05-19T01:08:54.513Z,95371.00
2023-05-19T01:09:54.555Z,95375.00
2023-05-19T01:10:54.524Z,95375.00
2023-05-19T01:11:54.545Z,95375.00
2023-05-19T01:12:54.543Z,95373.00
2023-05-19T01:13:54.538Z,95371.00
2023-05-19T01:14:54.527Z,95370.00
2023-05-19T01:15:54.553Z,95371.00
2023-05-19T01:16:54.580Z,95371.00
2023-05-19T01:17:54.635Z,95371.00
2023-05-19T01:18:54.645Z,95373.00
2023-05-19T01:19:54.526Z,95371.00
2023-05-19T01:20:54.541Z,95371.00
2023-05-19T01:21:54.534Z,95371.00
2023-05-19T01:22:54.500Z,95371.00
2023-05-19T01:23:54.505Z,95370.00
2023-05-19T01:24:54.529Z,95368.00
2023-05-19T01:25:54.544Z,95368.00
2023-05-19T01:26:54.531Z,95370.00
2023-05-19T01:27:54.500Z,95371.00
2023-05-19T01:28:54.549Z,95373.00
2023-05-19T01:29:54.522Z,95371.00
2023-05-19T01:30:54.521Z,95371.00
2023-05-19T01:31:54.576Z,95370.00
2023-05-19T01:32:54.508Z,95370.00
2023-05-19T01:33:54.536Z,95370.00
2023-05-19T01:34:54.568Z,95370.00
2023-05-19T01:35:54.599Z,95368.00
2023-05-19T01:36:54.643Z,95368.00
2023-05-19T01:37:54.714Z,95366.00
2023-05-19T01:38:54.767Z,95368.00
2023-05-19T01:39:54.780Z,95370.00
2023-05-19T01:40:54.863Z,95370.00
2023-05-19T01:41:54.925Z,95368.00
2023-05-19T01:42:57.289Z,95368.00
2023-05-19T01:43:55.218Z,95368.00
2023-05-19T01:44:56.056Z,95370.00
2023-05-19T01:45:55.348Z,95368.00
2023-05-19T01:46:55.381Z,95368.00
2023-05-19T01:47:55.451Z,95368.00
2023-05-19T01:48:55.458Z,95371.00
2023-05-19T01:49:55.551Z,95373.00
2023-05-19T01:50:55.592Z,95373.00
2023-05-19T01:51:55.654Z,95373.00
2023-05-19T01:52:55.682Z,95370.00
2023-05-19T01:53:55.791Z,95370.00
2023-05-19T01:54:55.812Z,95373.00
2023-05-19T01:55:55.886Z,95371.00
2023-05-19T01:56:55.927Z,95368.00
2023-05-19T01:57:56.013Z,95370.00
2023-05-19T01:58:56.028Z,95368.00
2023-05-19T01:59:56.075Z,95373.00
2023-05-19T02:00:56.183Z,95371.00
2023-05-19T02:01:56.181Z,95375.00
2023-05-19T02:02:56.311Z,95371.00
2023-05-19T02:03:56.299Z,95371.00
2023-05-19T02:04:56.350Z,95371.00
2023-05-19T02:05:56.399Z,95373.00
2023-05-19T02:06:56.438Z,95373.00
2023-05-19T02:07:56.495Z,95377.00
2023-05-19T02:08:56.526Z,95375.00
2023-05-19T02:09:56.560Z,95371.00
2023-05-19T02:10:56.602Z,95375.00
2023-05-19T02:11:56.681Z,95371.00
2023-05-19T02:12:56.726Z,95371.00
2023-05-19T02:13:56.741Z,95371.00
2023-05-19T02:14:56.784Z,95373.00
2023-05-19T02:15:56.878Z,95373.00
2023-05-19T02:16:56.865Z,95379.00
2023-05-19T02:17:56.911Z,95379.00
2023-05-19T02:18:56.969Z,95377.00
2023-05-19T02:19:56.983Z,95381.00
2023-05-19T02:20:56.992Z,95381.00
2023-05-19T02:21:57.057Z,95381.00
2023-05-19T02:22:57.068Z,95379.00
2023-05-19T02:23:57.108Z,95379.00
2023-05-19T02:24:57.145Z,95377.00
2023-05-19T02:25:57.211Z,95379.00
2023-05-19T02:26:57.250Z,95379.00
2023-05-19T02:27:57.275Z,95377.00
2023-05-19T02:28:57.292Z,95379.00
2023-05-19T02:29:57.325Z,95377.00
2023-05-19T02:30:57.370Z,95379.00
2023-05-19T02:31:57.449Z,95377.00
2023-05-19T02:32:57.492Z,95379.00
2023-05-19T02:33:57.470Z,95379.00
2023-05-19T02:34:57.489Z,95379.00
2023-05-19T02:35:57.537Z,95379.00
2023-05-19T02:36:57.536Z,95381.00
2023-05-19T02:37:57.565Z,95381.00
2023-05-19T02:38:57.606Z,95379.00
2023-05-19T02:39:57.649Z,95377.00
2023-05-19T02:40:57.690Z,95377.00
2023-05-19T02:41:57.711Z,95375.00
2023-05-19T02:42:57.724Z,95379.00
2023-05-19T02:43:57.764Z,95379.00
2023-05-19T02:44:57.770Z,95377.00
2023-05-19T02:45:57.860Z,95377.00
2023-05-19T02:46:57.849Z,95379.00
2023-05-19T02:47:57.935Z,95375.00
2023-05-19T02:48:57.914Z,95377.00
2023-05-19T02:49:57.929Z,95375.00
2023-05-19T02:50:57.987Z,95377.00
2023-05-19T02:51:58.015Z,95375.00
2023-05-19T02:52:58.018Z,95375.00
2023-05-19T02:53:58.065Z,95373.00
2023-05-19T02:54:58.082Z,95373.00
2023-05-19T02:55:58.114Z,95375.00
2023-05-19T02:56:58.134Z,95373.00
2023-05-19T02:57:58.152Z,95373.00
2023-05-19T02:58:58.208Z,95371.00
2023-05-19T02:59:58.233Z,95370.00
2023-05-19T03:00:58.220Z,95371.00
2023-05-19T03:01:58.316Z,95370.00
2023-05-19T03:02:58.366Z,95368.00
2023-05-19T03:03:58.386Z,95366.00
2023-05-19T03:04:58.336Z,95366.00
2023-05-19T03:05:58.327Z,95366.00
2023-05-19T03:06:58.351Z,95366.00
2023-05-19T03:07:58.377Z,95364.00
2023-05-19T03:08:58.415Z,95364.00
2023-05-19T03:09:58.421Z,95360.00
2023-05-19T03:10:58.423Z,95362.00
2023-05-19T03:11:58.445Z,95360.00
2023-05-19T03:12:58.467Z,95360.00
2023-05-19T03:13:58.489Z,95360.00
2023-05-19T03:14:58.536Z,95364.00
2023-05-19T03:15:58.607Z,95360.00
2023-05-19T03:16:58.603Z,95362.00
2023-05-19T03:17:58.610Z,95360.00
2023-05-19T03:18:58.598Z,95360.00
2023-05-19T03:19:58.598Z,95360.00
2023-05-19T03:20:58.631Z,95358.00
2023-05-19T03:21:58.639Z,95358.00
2023-05-19T03:22:58.712Z,95358.00
2023-05-19T03:23:58.709Z,95362.00
2023-05-19T03:24:58.725Z,95358.00
2023-05-19T03:25:58.700Z,95356.00
2023-05-19T03:26:58.746Z,95360.00
2023-05-19T03:27:58.760Z,95358.00
2023-05-19T03:28:58.746Z,95358.00
2023-05-19T03:29:58.769Z,95358.00
2023-05-19T03:30:58.814Z,95360.00
2023-05-19T03:31:58.939Z,95360.00
2023-05-19T03:32:58.902Z,95360.00
2023-05-19T03:33:58.852Z,95358.00
2023-05-19T03:34:58.881Z,95364.00
2023-05-19T03:35:58.889Z,95360.00
2023-05-19T03:36:58.889Z,95362.00
2023-05-19T03:37:58.919Z,95362.00
2023-05-19T03:38:58.910Z,95362.00
2023-05-19T03:39:58.942Z,95360.00
2023-05-19T03:40:58.958Z,95362.00
2023-05-19T03:41:58.995Z,95362.00
2023-05-19T03:42:58.975Z,95362.00
2023-05-19T03:43:59.065Z,95360.00
2023-05-19T03:44:59.022Z,95358.00
2023-05-19T03:45:59.038Z,95358.00
2023-05-19T03:46:59.060Z,95358.00
2023-05-19T03:47:59.089Z,95356.00
2023-05-19T03:48:59.071Z,95356.00
2023-05-19T03:49:59.092Z,95358.00
2023-05-19T03:50:59.096Z,95358.00
2023-05-19T03:51:59.084Z,95358.00
2023-05-19T03:52:59.153Z,95360.00
2023-05-19T03:53:59.493Z,95362.00
2023-05-19T03:54:59.550Z,95358.00
2023-05-19T03:55:59.163Z,95364.00
2023-05-19T03:56:59.161Z,95364.00
2023-05-19T03:57:59.158Z,95362.00
2023-05-19T03:58:59.187Z,95368.00
2023-05-19T03:59:59.184Z,95368.00
2023-05-19T04:00:59.200Z,95368.00
2023-05-19T04:01:59.228Z,95368.00
2023-05-19T04:02:59.274Z,95370.00
2023-05-19T04:03:59.220Z,95368.00
2023-05-19T04:04:59.313Z,95368.00
2023-05-19T04:05:59.265Z,95366.00
2023-05-19T04:06:59.238Z,95364.00
2023-05-19T04:07:59.257Z,95364.00
2023-05-19T04:08:59.279Z,95360.00
2023-05-19T04:09:59.305Z,95360.00
2023-05-19T04:10:59.296Z,95362.00
2023-05-19T04:11:59.308Z,95362.00
2023-05-19T04:12:59.309Z,95360.00
2023-05-19T04:13:59.314Z,95360.00
2023-05-19T04:14:59.339Z,95360.00
2023-05-19T04:15:59.378Z,95358.00
2023-05-19T04:16:59.333Z,95358.00
2023-05-19T04:17:59.365Z,95360.00
2023-05-19T04:18:59.385Z,95358.00
2023-05-19T04:19:59.362Z,95358.00
2023-05-19T04:20:59.394Z,95360.00
2023-05-19T04:21:59.398Z,95360.00
2023-05-19T04:22:59.417Z,95362.00
2023-05-19T04:23:59.417Z,95360.00
2023-05-19T04:24:59.436Z,95364.00
2023-05-19T04:25:59.449Z,95364.00
2023-05-19T04:26:59.451Z,95362.00
2023-05-19T04:27:59.466Z,95364.00
2023-05-19T04:28:59.465Z,95364.00
2023-05-19T04:29:59.468Z,95366.00
2023-05-19T04:30:59.502Z,95368.00
2023-05-19T04:31:59.469Z,95368.00
2023-05-19T04:32:59.521Z,95370.00
2023-05-19T04:33:59.493Z,95370.00
2023-05-19T04:34:59.496Z,95368.00
2023-05-19T04:35:59.507Z,95370.00
2023-05-19T04:36:59.511Z,95370.00
2023-05-19T04:37:59.541Z,95370.00
2023-05-19T04:38:59.548Z,95371.00
2023-05-19T04:39:59.560Z,95373.00
2023-05-19T04:40:59.581Z,95371.00
2023-05-19T04:41:59.553Z,95373.00
2023-05-19T04:42:59.592Z,95371.00
2023-05-19T04:43:59.608Z,95375.00
2023-05-19T04:44:59.629Z,95373.00
2023-05-19T04:45:59.598Z,95371.00
2023-05-19T04:46:59.662Z,95373.00
2023-05-19T04:47:59.706Z,95371.00
2023-05-19T04:48:59.636Z,95371.00
2023-05-19T04:50:00.733Z,95370.00
2023-05-19T04:50:59.710Z,95370.00
2023-05-19T04:51:59.685Z,95370.00
2023-05-19T04:52:59.723Z,95371.00
2023-05-19T04:53:59.706Z,95371.00
2023-05-19T04:54:59.700Z,95373.00
2023-05-19T04:55:59.733Z,95375.00
2023-05-19T04:56:59.755Z,95371.00
2023-05-19T04:57:59.770Z,95371.00
2023-05-19T04:58:59.756Z,95371.00
2023-05-19T04:59:59.769Z,95366.00
2023-05-19T05:01:09.158Z,95366.00
2023-05-19T05:01:59.857Z,95366.00
2023-05-19T05:02:59.882Z,95366.00
2023-05-19T05:03:59.828Z,95366.00
2023-05-19T05:04:59.828Z,95370.00
2023-05-19T05:05:59.802Z,95371.00
2023-05-19T05:06:59.742Z,95371.00
2023-05-19T05:07:59.792Z,95371.00
2023-05-19T05:08:59.753Z,95373.00
2023-05-19T05:09:59.745Z,95371.00
2023-05-19T05:10:59.729Z,95370.00
2023-05-19T05:11:59.754Z,95368.00
2023-05-19T05:12:59.706Z,95364.00
2023-05-19T05:13:59.730Z,95364.00
2023-05-19T05:14:59.685Z,95366.00
2023-05-19T05:15:59.704Z,95366.00
2023-05-19T05:16:59.675Z,95368.00
2023-05-19T05:17:59.745Z,95366.00
2023-05-19T05:18:59.711Z,95368.00
2023-05-19T05:19:59.658Z,95366.00
2023-05-19T05:20:59.664Z,95366.00
2023-05-19T05:21:59.682Z,95366.00
2023-05-19T05:22:59.697Z,95366.00
2023-05-19T05:23:59.644Z,95364.00
2023-05-19T05:24:59.621Z,95362.00
2023-05-19T05:25:59.662Z,95364.00
2023-05-19T05:26:59.648Z,95364.00
2023-05-19T05:27:59.614Z,95360.00
2023-05-19T05:28:59.617Z,95364.00
2023-05-19T05:29:59.626Z,95362.00
2023-05-19T05:30:59.594Z,95364.00
2023-05-19T05:31:59.666Z,95364.00
2023-05-19T05:32:59.652Z,95364.00
2023-05-19T05:33:59.590Z,95362.00
2023-05-19T05:34:59.570Z,95360.00
2023-05-19T05:35:59.535Z,95364.00
2023-05-19T05:37:00.207Z,95360.00
2023-05-19T05:37:59.551Z,95356.00
2023-05-19T05:38:59.529Z,95358.00
2023-05-19T05:39:59.530Z,95356.00
2023-05-19T05:40:59.530Z,95358.00
2023-05-19T05:41:59.506Z,95358.00
2023-05-19T05:42:59.517Z,95358.00
2023-05-19T05:43:59.512Z,95358.00
2023-05-19T05:44:59.495Z,95360.00
2023-05-19T05:46:08.837Z,95360.00
2023-05-19T05:46:59.482Z,95360.00
2023-05-19T05:47:59.551Z,95360.00
2023-05-19T05:48:59.486Z,95358.00
2023-05-19T05:49:59.446Z,95358.00
2023-05-19T05:50:59.517Z,95360.00
2023-05-19T05:52:59.552Z,95358.00
2023-05-19T05:53:59.443Z,95358.00
2023-05-19T05:54:59.456Z,95354.00
2023-05-19T05:55:59.443Z,95354.00
2023-05-19T05:56:59.429Z,95354.00
2023-05-19T05:57:59.442Z,95354.00
2023-05-19T05:58:59.420Z,95354.00
2023-05-19T05:59:59.379Z,95356.00
2023-05-19T06:00:59.395Z,95352.00
2023-05-19T06:01:59.396Z,95354.00
2023-05-19T06:02:59.607Z,95354.00
2023-05-19T06:03:59.384Z,95354.00
2023-05-19T06:04:59.426Z,95352.00
2023-05-19T06:05:59.441Z,95352.00
2023-05-19T06:06:59.359Z,95352.00
2023-05-19T06:07:59.373Z,95352.00
2023-05-19T06:08:59.355Z,95352.00
2023-05-19T06:09:59.354Z,95350.00
2023-05-19T06:10:59.328Z,95352.00
2023-05-19T06:11:59.315Z,95350.00
2023-05-19T06:12:59.311Z,95348.00
2023-05-19T06:13:59.326Z,95348.00
2023-05-19T06:14:59.343Z,95348.00
2023-05-19T06:16:01.720Z,95348.00
2023-05-19T06:16:59.292Z,95348.00
2023-05-19T06:17:59.487Z,95352.00
2023-05-19T06:18:59.445Z,95356.00
2023-05-19T06:19:59.284Z,95354.00
2023-05-19T06:20:59.246Z,95354.00
2023-05-19T06:21:59.276Z,95352.00
2023-05-19T06:22:59.263Z,95354.00
2023-05-19T06:23:59.226Z,95358.00
2023-05-19T06:24:59.276Z,95358.00
2023-05-19T06:25:59.254Z,95360.00
2023-05-19T06:26:59.231Z,95362.00
2023-05-19T06:27:59.187Z,95360.00
2023-05-19T06:28:59.233Z,95360.00
2023-05-19T06:29:59.227Z,95354.00
2023-05-19T06:30:59.251Z,95352.00
2023-05-19T06:31:59.188Z,95354.00
2023-05-19T06:32:59.191Z,95354.00
2023-05-19T06:33:59.168Z,95348.00
2023-05-19T06:34:59.159Z,95348.00
2023-05-19T06:35:59.173Z,95348.00
2023-05-19T06:36:59.154Z,95346.00
2023-05-19T06:37:59.162Z,95346.00
2023-05-19T06:39:01.335Z,95346.00
2023-05-19T06:39:59.098Z,95344.00
2023-05-19T06:40:59.094Z,95346.00
2023-05-19T06:41:59.131Z,95346.00
2023-05-19T06:42:59.113Z,95344.00
2023-05-19T06:43:59.104Z,95346.00
2023-05-19T06:44:59.110Z,95346.00
2023-05-19T06:45:59.100Z,95348.00
2023-05-19T06:46:59.137Z,95348.00
2023-05-19T06:47:59.130Z,95350.00
2023-05-19T06:48:59.046Z,95346.00
2023-05-19T06:49:59.080Z,95346.00
2023-05-19T06:50:59.046Z,95346.00
2023-05-19T06:51:59.072Z,95346.00
2023-05-19T06:52:59.039Z,95346.00
2023-05-19T06:53:59.050Z,95346.00
2023-05-19T06:54:59.005Z,95344.00
2023-05-19T06:56:00.167Z,95344.00
2023-05-19T06:56:58.978Z,95346.00
2023-05-19T06:57:58.990Z,95342.00
2023-05-19T06:58:58.964Z,95340.00
2023-05-19T06:59:58.979Z,95342.00
2023-05-19T07:00:58.986Z,95336.00
2023-05-19T07:01:59.079Z,95340.00
2023-05-19T07:02:59.073Z,95338.00
2023-05-19T07:03:59.099Z,95336.00
2023-05-19T07:04:58.952Z,95338.00
2023-05-19T07:05:58.938Z,95338.00
2023-05-19T07:06:58.942Z,95338.00
2023-05-19T07:07:58.927Z,95338.00
2023-05-19T07:08:58.945Z,95336.00
2023-05-19T07:09:58.900Z,95336.00
2023-05-19T07:10:58.897Z,95336.00
2023-05-19T07:11:58.872Z,95336.00
2023-05-19T07:12:58.905Z,95338.00
2023-05-19T07:13:58.951Z,95340.00
2023-05-19T07:14:58.872Z,95338.00
2023-05-19T07:15:58.869Z,95336.00
2023-05-19T07:16:58.853Z,95336.00
2023-05-19T07:17:58.895Z,95338.00
2023-05-19T07:18:58.994Z,95336.00
2023-05-19T07:19:58.994Z,95334.00
2023-05-19T07:20:59.085Z,95338.00
2023-05-19T07:21:59.079Z,95340.00
2023-05-19T07:22:59.114Z,95338.00
2023-05-19T07:23:59.165Z,95336.00
2023-05-19T07:24:59.162Z,95334.00
2023-05-19T07:25:59.237Z,95334.00
2023-05-19T07:26:59.292Z,95334.00
2023-05-19T07:27:59.293Z,95332.00
2023-05-19T07:28:59.346Z,95332.00
2023-05-19T07:29:59.406Z,95330.00
2023-05-19T07:30:59.419Z,95330.00
2023-05-19T07:31:59.571Z,95326.00
2023-05-19T07:32:59.499Z,95326.00
2023-05-19T07:33:59.535Z,95323.00
2023-05-19T07:34:59.580Z,95321.00
2023-05-19T07:35:59.607Z,95321.00
2023-05-19T07:36:59.689Z,95321.00
2023-05-19T07:37:59.723Z,95321.00
2023-05-19T07:38:59.752Z,95321.00
2023-05-19T07:39:59.831Z,95317.00
2023-05-19T07:40:59.868Z,95319.00
2023-05-19T07:41:59.903Z,95317.00
2023-05-19T07:42:59.906Z,95319.00
2023-05-19T07:43:59.937Z,95319.00
2023-05-19T07:45:00.008Z,95319.00
2023-05-19T07:46:00.051Z,95315.00
2023-05-19T07:47:00.068Z,95317.00
2023-05-19T07:48:00.230Z,95317.00
2023-05-19T07:49:00.153Z,95317.00
2023-05-19T07:50:00.248Z,95315.00
2023-05-19T07:51:00.216Z,95313.00
2023-05-19T07:52:00.268Z,95313.00
2023-05-19T07:53:00.332Z,95311.00
2023-05-19T07:54:00.351Z,95311.00
2023-05-19T07:55:01.275Z,95307.00
2023-05-19T07:56:00.448Z,95305.00
2023-05-19T07:57:00.515Z,95305.00
2023-05-19T07:58:00.492Z,95305.00
2023-05-19T07:59:00.515Z,95303.00
2023-05-19T08:00:00.597Z,95301.00
2023-05-19T08:01:00.641Z,95307.00
2023-05-19T08:02:00.711Z,95303.00
2023-05-19T08:03:00.778Z,95305.00
2023-05-19T08:04:00.852Z,95303.00
2023-05-19T08:05:00.809Z,95303.00
2023-05-19T08:06:00.856Z,95303.00
2023-05-19T08:07:00.915Z,95301.00
2023-05-19T08:08:00.934Z,95299.00
2023-05-19T08:09:00.958Z,95297.00
2023-05-19T08:10:01.017Z,95297.00
2023-05-19T08:11:01.050Z,95297.00
2023-05-19T08:12:01.126Z,95299.00
2023-05-19T08:13:01.201Z,95299.00
2023-05-19T08:14:01.171Z,95297.00
2023-05-19T08:15:01.750Z,95297.00
2023-05-19T08:16:01.325Z,95297.00
2023-05-19T08:17:01.327Z,95293.00
2023-05-19T08:18:01.421Z,95295.00
2023-05-19T08:19:01.469Z,95293.00
2023-05-19T08:20:01.478Z,95291.00
2023-05-19T08:21:01.508Z,95291.00
2023-05-19T08:22:01.512Z,95295.00
2023-05-19T08:23:01.545Z,95291.00
2023-05-19T08:24:01.672Z,95291.00
2023-05-19T08:25:01.650Z,95293.00
2023-05-19T08:26:01.699Z,95291.00
2023-05-19T08:27:01.744Z,95291.00
2023-05-19T08:28:01.795Z,95289.00
2023-05-19T08:29:01.816Z,95287.00
2023-05-19T08:30:01.870Z,95287.00
2023-05-19T08:31:02.006Z,95285.00
2023-05-19T08:32:01.992Z,95283.00
2023-05-19T08:33:02.033Z,95283.00
2023-05-19T08:34:02.053Z,95281.00
2023-05-19T08:35:02.065Z,95279.00
2023-05-19T08:36:02.113Z,95281.00
2023-05-19T08:37:02.158Z,95281.00
2023-05-19T08:38:02.200Z,95276.00
2023-05-19T08:39:02.243Z,95279.00
2023-05-19T08:40:02.289Z,95274.00
2023-05-19T08:41:02.338Z,95276.00
2023-05-19T08:42:02.359Z,95274.00
2023-05-19T08:43:02.399Z,95274.00
2023-05-19T08:44:02.429Z,95272.00
2023-05-19T08:45:02.516Z,95272.00
2023-05-19T08:46:02.489Z,95274.00
2023-05-19T08:47:02.581Z,95270.00
2023-05-19T08:48:02.646Z,95272.00
2023-05-19T08:49:02.615Z,95270.00
2023-05-19T08:50:02.870Z,95268.00
2023-05-19T08:51:02.732Z,95264.00
2023-05-19T08:52:02.730Z,95262.00
2023-05-19T08:53:02.800Z,95262.00
2023-05-19T08:54:02.802Z,95258.00
2023-05-19T08:55:02.867Z,95258.00
2023-05-19T08:56:02.897Z,95258.00
2023-05-19T08:57:02.925Z,95256.00
2023-05-19T08:58:02.979Z,95256.00
2023-05-19T08:59:02.982Z,95256.00
2023-05-19T09:00:03.029Z,95254.00
2023-05-19T09:01:03.109Z,95252.00
2023-05-19T09:02:03.110Z,95252.00
2023-05-19T09:04:03.187Z,95250.00
2023-05-19T09:05:03.266Z,95250.00
2023-05-19T09:06:03.165Z,95252.00
2023-05-19T09:07:03.088Z,95252.00
2023-05-19T09:08:03.135Z,95252.00
2023-05-19T09:09:03.118Z,95252.00
2023-05-19T09:10:03.091Z,95246.00
2023-05-19T09:11:03.119Z,95248.00
2023-05-19T09:12:03.091Z,95246.00
2023-05-19T09:13:03.098Z,95248.00
2023-05-19T09:14:03.052Z,95244.00
2023-05-19T09:15:03.065Z,95238.00
2023-05-19T09:16:03.074Z,95240.00
2023-05-19T09:17:03.131Z,95238.00
2023-05-19T09:18:03.051Z,95238.00
2023-05-19T09:19:03.062Z,95234.00
2023-05-19T09:20:03.044Z,95232.00
2023-05-19T09:21:03.295Z,95228.00
2023-05-19T09:22:03.031Z,95230.00
2023-05-19T09:23:03.007Z,95230.00
2023-05-19T09:24:02.983Z,95226.00
2023-05-19T09:25:03.010Z,95228.00
2023-05-19T09:26:03.005Z,95224.00
2023-05-19T09:27:02.947Z,95226.00
2023-05-19T09:28:02.982Z,95224.00
2023-05-19T09:29:02.944Z,95222.00
2023-05-19T09:30:03.008Z,95222.00
2023-05-19T09:31:02.953Z,95221.00
2023-05-19T09:32:02.997Z,95219.00
2023-05-19T09:33:02.995Z,95219.00
2023-05-19T09:34:02.924Z,95215.00
2023-05-19T09:35:02.924Z,95215.00
2023-05-19T09:36:02.913Z,95213.00
2023-05-19T09:37:02.909Z,95211.00
2023-05-19T09:38:02.962Z,95209.00
2023-05-19T09:39:02.907Z,95207.00
2023-05-19T09:40:02.909Z,95205.00
2023-05-19T09:41:02.887Z,95201.00
2023-05-19T09:42:02.878Z,95203.00
2023-05-19T09:43:02.882Z,95203.00
2023-05-19T09:44:03.863Z,95199.00
2023-05-19T09:45:02.862Z,95197.00
2023-05-19T09:46:02.847Z,95197.00
2023-05-19T09:47:02.839Z,95195.00
2023-05-19T09:48:02.873Z,95201.00
2023-05-19T09:49:02.816Z,95199.00
2023-05-19T09:50:02.827Z,95197.00
2023-05-19T09:51:02.834Z,95191.00
2023-05-19T09:52:02.857Z,95185.00
2023-05-19T09:53:02.780Z,95181.00
2023-05-19T09:54:02.770Z,95183.00
2023-05-19T09:55:02.749Z,95183.00
2023-05-19T09:56:02.749Z,95185.00
2023-05-19T09:57:02.760Z,95181.00
2023-05-19T09:58:02.742Z,95181.00
2023-05-19T09:59:02.725Z,95181.00
2023-05-19T10:00:02.739Z,95177.00
2023-05-19T10:01:02.795Z,95175.00
2023-05-19T10:02:03.144Z,95174.00
2023-05-19T10:03:02.783Z,95172.00
2023-05-19T10:04:03.865Z,95168.00
2023-05-19T10:05:02.761Z,95166.00
2023-05-19T10:06:02.698Z,95166.00
2023-05-19T10:07:02.684Z,95164.00
2023-05-19T10:08:02.673Z,95158.00
2023-05-19T10:09:02.687Z,95158.00
2023-05-19T10:10:02.665Z,95154.00
2023-05-19T10:11:02.669Z,95158.00
2023-05-19T10:12:02.672Z,95152.00
2023-05-19T10:13:02.626Z,95144.00
2023-05-19T10:14:02.629Z,95144.00
2023-05-19T10:15:02.638Z,95142.00
2023-05-19T10:16:02.832Z,95142.00
2023-05-19T10:17:02.759Z,95142.00
2023-05-19T10:18:02.678Z,95138.00
2023-05-19T10:19:02.747Z,95140.00
2023-05-19T10:20:02.580Z,95138.00
2023-05-19T10:21:02.646Z,95132.00
2023-05-19T10:22:02.556Z,95134.00
2023-05-19T10:23:02.555Z,95130.00
2023-05-19T10:24:02.595Z,95130.00
2023-05-19T10:25:02.570Z,95134.00
2023-05-19T10:26:02.551Z,95130.00
2023-05-19T10:27:02.595Z,95130.00
2023-05-19T10:28:02.567Z,95128.00
2023-05-19T10:29:02.584Z,95126.00
2023-05-19T10:30:02.565Z,95124.00
2023-05-19T10:31:02.534Z,95122.00
2023-05-19T10:32:02.544Z,95122.00
2023-05-19T10:33:02.533Z,95115.00
2023-05-19T10:34:02.520Z,95115.00
2023-05-19T10:35:02.487Z,95111.00
2023-05-19T10:36:02.484Z,95109.00
2023-05-19T10:37:02.495Z,95113.00
2023-05-19T10:38:02.512Z,95107.00
2023-05-19T10:39:02.466Z,95107.00
2023-05-19T10:40:02.459Z,95109.00
2023-05-19T10:41:02.416Z,95109.00
2023-05-19T10:42:02.467Z,95107.00
2023-05-19T10:43:02.424Z,95105.00
2023-05-19T10:44:02.406Z,95105.00
2023-05-19T10:45:02.426Z,95107.00
2023-05-19T10:46:02.373Z,95107.00
2023-05-19T10:47:02.585Z,95107.00
2023-05-19T10:48:02.419Z,95105.00
2023-05-19T10:49:02.358Z,95101.00
2023-05-19T10:50:02.383Z,95101.00
2023-05-19T10:51:02.369Z,95099.00
2023-05-19T10:52:02.367Z,95099.00
2023-05-19T10:53:02.366Z,95097.00
2023-05-19T10:54:02.393Z,95097.00
2023-05-19T10:55:02.350Z,95097.00
2023-05-19T10:56:02.355Z,95095.00
2023-05-19T10:57:02.329Z,95099.00
2023-05-19T10:58:02.393Z,95087.00
2023-05-19T10:59:02.332Z,95095.00
2023-05-19T11:00:02.312Z,95085.00
2023-05-19T11:01:02.359Z,95085.00
2023-05-19T11:02:02.297Z,95085.00
2023-05-19T11:03:02.356Z,95085.00
2023-05-19T11:04:02.352Z,95083.00
2023-05-19T11:05:02.330Z,95079.00
2023-05-19T11:06:02.266Z,95079.00
2023-05-19T11:07:02.284Z,95079.00
2023-05-19T11:08:02.487Z,95081.00
2023-05-19T11:09:02.367Z,95079.00
2023-05-19T11:10:02.261Z,95085.00
2023-05-19T11:11:02.883Z,95085.00
2023-05-19T11:12:02.267Z,95079.00
2023-05-19T11:13:02.225Z,95077.00
2023-05-19T11:14:02.231Z,95077.00
2023-05-19T11:15:02.242Z,95077.00
2023-05-19T11:16:02.229Z,95077.00
2023-05-19T11:17:02.535Z,95075.00
2023-05-19T11:18:02.295Z,95077.00
2023-05-19T11:19:02.222Z,95072.00
2023-05-19T11:20:02.209Z,95072.00
2023-05-19T11:21:02.330Z,95072.00
2023-05-19T11:22:02.202Z,95074.00
2023-05-19T11:23:02.225Z,95072.00
2023-05-19T11:24:02.298Z,95072.00
2023-05-19T11:25:02.177Z,95068.00
2023-05-19T11:26:02.141Z,95064.00
2023-05-19T11:27:02.176Z,95068.00
2023-05-19T11:28:02.127Z,95062.00
2023-05-19T11:29:02.112Z,95060.00
2023-05-19T11:30:02.419Z,95062.00
2023-05-19T11:31:02.116Z,95060.00
2023-05-19T11:32:02.157Z,95054.00
2023-05-19T11:33:02.188Z,95056.00
2023-05-19T11:34:02.133Z,95054.00
2023-05-19T11:35:02.129Z,95050.00
2023-05-19T11:36:02.113Z,95052.00
2023-05-19T11:37:02.122Z,95048.00
2023-05-19T11:38:02.091Z,95046.00
2023-05-19T11:39:02.068Z,95046.00
2023-05-19T11:40:02.075Z,95042.00
2023-05-19T11:41:02.037Z,95042.00
2023-05-19T11:42:02.022Z,95038.00
2023-05-19T11:43:02.143Z,95042.00
2023-05-19T11:44:02.063Z,95042.00
2023-05-19T11:45:02.062Z,95036.00
2023-05-19T11:46:02.206Z,95034.00
2023-05-19T11:47:02.006Z,95032.00